Overview Statistics Trail Chart Weather Telemetry Raw packets
 

This is the latest recevied weather packets stored in our database for station/object IU5JAE-13. If no packets are shown the sender has not sent any weather packets the latest 10 day(s).

<< 41 42 43 44 45 46 47 >>
Time Temp. Humidity Pressure Rain* Wind** Luminosity Snow
1788081024 24.44° C 53% 1017.5 hPa 0 mm - 498 W/m² -
1788080421 25° C 53% 1017.6 hPa 0 mm - 476 W/m² -
1788079819 23.33° C 56% 1017.5 hPa 0 mm - 457 W/m² -
1788079216 23.89° C 53% 1017.4 hPa 0 mm - 438 W/m² -
1788078634 23.89° C 54% 1017.5 hPa 0 mm - 417 W/m² -
1788078043 23.89° C 58% 1017.5 hPa 0 mm - 391 W/m² -
1788077429 23.89° C 57% 1017.4 hPa 0 mm - 365 W/m² -
1788076827 23.33° C 55% 1017.5 hPa 0 mm - 343 W/m² -
1788076225 22.78° C 60% 1017.3 hPa 0 mm - 325 W/m² -
1788075622 22.22° C 62% 1017.3 hPa 0 mm - 309 W/m² -
1788075019 21.67° C 63% 1017.1 hPa 0 mm - 291 W/m² -
1788074417 23.33° C 60% 1017.1 hPa 0 mm - 269 W/m² -
1788073835 22.78° C 61% 1017 hPa 0 mm - 245 W/m² -
1788073232 22.22° C 63% 1016.9 hPa 0 mm - 220 W/m² -
1788072630 21.67° C 63% 1016.8 hPa 0 mm - 193 W/m² -
1788072028 22.78° C 59% 1016.9 hPa 0 mm - 167 W/m² -
1788071425 22.22° C 54% 1017 hPa 0 mm - 136 W/m² -
1788070823 21.11° C 52% 1016.9 hPa 0 mm - 104 W/m² -
1788070220 21.11° C 51% 1016.9 hPa 0 mm - 85 W/m² -
1788069618 20.56° C 54% 1016.9 hPa 0 mm - 71 W/m² -
1788069015 21.67° C 53% 1016.8 hPa 0 mm - 58 W/m² -
1788068433 21.67° C 49% 1016.8 hPa 0 mm - 47 W/m² -
1788067831 20.56° C 52% 1016.7 hPa 0 mm - 36 W/m² -
1788067228 19.44° C 53% 1016.6 hPa 0 mm - 26 W/m² -
1788066626 18.33° C 56% 1016.7 hPa 0 mm - 17 W/m² -

* Rain latest hour (hover to see other rain measurements)
** Current wind speed in m/s (hover to see current wind gust speed)